sensor_id;sensor_type;location;lat;lon;timestamp;P1;durP1;ratioP1;P2;durP2;ratioP2
65368;SDS011;51970;53.484;49.488;2022-07-26T00:02:24;20.20;;;11.02;;
65368;SDS011;51970;53.484;49.488;2022-07-26T00:04:51;21.98;;;11.75;;
65368;SDS011;51970;53.484;49.488;2022-07-26T00:07:17;20.30;;;11.40;;
65368;SDS011;51970;53.484;49.488;2022-07-26T00:09:43;20.52;;;13.10;;
65368;SDS011;51970;53.484;49.488;2022-07-26T00:12:09;19.15;;;12.85;;
65368;SDS011;51970;53.484;49.488;2022-07-26T00:14:35;17.67;;;11.63;;
65368;SDS011;51970;53.484;49.488;2022-07-26T00:17:02;20.27;;;11.30;;
65368;SDS011;51970;53.484;49.488;2022-07-26T00:19:29;20.98;;;12.00;;
65368;SDS011;51970;53.484;49.488;2022-07-26T00:21:55;22.05;;;12.15;;
65368;SDS011;51970;53.484;49.488;2022-07-26T00:24:40;18.05;;;11.70;;
65368;SDS011;51970;53.484;49.488;2022-07-26T00:27:06;19.75;;;12.88;;
65368;SDS011;51970;53.484;49.488;2022-07-26T00:29:32;21.02;;;12.52;;
65368;SDS011;51970;53.484;49.488;2022-07-26T00:31:58;20.70;;;11.82;;
65368;SDS011;51970;53.484;49.488;2022-07-26T00:34:24;18.25;;;12.30;;
65368;SDS011;51970;53.484;49.488;2022-07-26T00:36:50;17.95;;;12.90;;
65368;SDS011;51970;53.484;49.488;2022-07-26T00:39:16;18.85;;;13.00;;
65368;SDS011;51970;53.484;49.488;2022-07-26T00:41:42;21.55;;;13.68;;
65368;SDS011;51970;53.484;49.488;2022-07-26T00:44:09;28.98;;;14.05;;
65368;SDS011;51970;53.484;49.488;2022-07-26T00:46:35;17.20;;;13.35;;
65368;SDS011;51970;53.484;49.488;2022-07-26T00:49:01;18.95;;;11.70;;
65368;SDS011;51970;53.484;49.488;2022-07-26T00:51:27;18.33;;;13.05;;
65368;SDS011;51970;53.484;49.488;2022-07-26T00:53:53;19.70;;;14.10;;
65368;SDS011;51970;53.484;49.488;2022-07-26T00:56:20;21.20;;;13.85;;
65368;SDS011;51970;53.484;49.488;2022-07-26T00:58:46;22.48;;;14.13;;
65368;SDS011;51970;53.484;49.488;2022-07-26T01:01:12;20.23;;;13.70;;
65368;SDS011;51970;53.484;49.488;2022-07-26T01:03:38;19.45;;;13.88;;
65368;SDS011;51970;53.484;49.488;2022-07-26T01:06:05;20.30;;;13.90;;
65368;SDS011;51970;53.484;49.488;2022-07-26T01:08:31;20.50;;;13.32;;
65368;SDS011;51970;53.484;49.488;2022-07-26T01:10:57;22.60;;;13.38;;
65368;SDS011;51970;53.484;49.488;2022-07-26T01:13:23;20.27;;;13.77;;
65368;SDS011;51970;53.484;49.488;2022-07-26T01:15:49;19.85;;;12.77;;
65368;SDS011;51970;53.484;49.488;2022-07-26T01:18:15;21.35;;;12.40;;
65368;SDS011;51970;53.484;49.488;2022-07-26T01:20:42;19.52;;;12.63;;
65368;SDS011;51970;53.484;49.488;2022-07-26T01:23:09;20.48;;;12.55;;
65368;SDS011;51970;53.484;49.488;2022-07-26T01:25:36;18.90;;;12.73;;
65368;SDS011;51970;53.484;49.488;2022-07-26T01:28:03;19.42;;;13.48;;
65368;SDS011;51970;53.484;49.488;2022-07-26T01:30:29;23.35;;;12.95;;
65368;SDS011;51970;53.484;49.488;2022-07-26T01:32:57;23.02;;;13.23;;
65368;SDS011;51970;53.484;49.488;2022-07-26T01:35:23;23.42;;;14.63;;
65368;SDS011;51970;53.484;49.488;2022-07-26T01:37:49;23.58;;;13.35;;
65368;SDS011;51970;53.484;49.488;2022-07-26T01:40:15;24.90;;;15.10;;
65368;SDS011;51970;53.484;49.488;2022-07-26T01:42:41;25.90;;;15.55;;
65368;SDS011;51970;53.484;49.488;2022-07-26T01:45:07;22.98;;;16.27;;
65368;SDS011;51970;53.484;49.488;2022-07-26T01:47:35;22.67;;;15.25;;
65368;SDS011;51970;53.484;49.488;2022-07-26T01:50:03;25.35;;;14.65;;
65368;SDS011;51970;53.484;49.488;2022-07-26T01:52:30;23.17;;;15.35;;
65368;SDS011;51970;53.484;49.488;2022-07-26T01:54:57;19.42;;;14.18;;
65368;SDS011;51970;53.484;49.488;2022-07-26T01:57:23;19.58;;;14.05;;
65368;SDS011;51970;53.484;49.488;2022-07-26T01:59:49;21.83;;;13.93;;
65368;SDS011;51970;53.484;49.488;2022-07-26T02:02:15;23.17;;;13.50;;
65368;SDS011;51970;53.484;49.488;2022-07-26T02:04:41;17.58;;;11.82;;
65368;SDS011;51970;53.484;49.488;2022-07-26T02:07:23;27.15;;;13.70;;
65368;SDS011;51970;53.484;49.488;2022-07-26T02:09:49;21.35;;;13.27;;
65368;SDS011;51970;53.484;49.488;2022-07-26T02:12:15;22.58;;;14.25;;
65368;SDS011;51970;53.484;49.488;2022-07-26T02:14:41;20.15;;;14.90;;
65368;SDS011;51970;53.484;49.488;2022-07-26T02:17:07;23.30;;;13.38;;
65368;SDS011;51970;53.484;49.488;2022-07-26T02:19:34;18.95;;;12.82;;
65368;SDS011;51970;53.484;49.488;2022-07-26T02:22:00;22.95;;;15.25;;
65368;SDS011;51970;53.484;49.488;2022-07-26T02:24:26;20.98;;;12.85;;
65368;SDS011;51970;53.484;49.488;2022-07-26T02:26:56;18.05;;;12.43;;
65368;SDS011;51970;53.484;49.488;2022-07-26T02:29:23;23.58;;;13.07;;
65368;SDS011;51970;53.484;49.488;2022-07-26T02:31:50;18.52;;;13.77;;
65368;SDS011;51970;53.484;49.488;2022-07-26T02:34:16;20.17;;;13.75;;
65368;SDS011;51970;53.484;49.488;2022-07-26T02:36:43;18.85;;;13.15;;
65368;SDS011;51970;53.484;49.488;2022-07-26T02:39:09;27.90;;;15.25;;
65368;SDS011;51970;53.484;49.488;2022-07-26T02:41:37;22.58;;;14.38;;
65368;SDS011;51970;53.484;49.488;2022-07-26T02:44:03;27.10;;;15.32;;
65368;SDS011;51970;53.484;49.488;2022-07-26T02:46:30;23.95;;;14.45;;
65368;SDS011;51970;53.484;49.488;2022-07-26T02:48:56;29.33;;;15.27;;
65368;SDS011;51970;53.484;49.488;2022-07-26T02:51:24;25.52;;;14.05;;
65368;SDS011;51970;53.484;49.488;2022-07-26T02:53:50;23.65;;;13.75;;
65368;SDS011;51970;53.484;49.488;2022-07-26T02:56:16;26.30;;;14.02;;
65368;SDS011;51970;53.484;49.488;2022-07-26T02:58:42;19.90;;;12.68;;
65368;SDS011;51970;53.484;49.488;2022-07-26T03:01:08;24.15;;;15.63;;
65368;SDS011;51970;53.484;49.488;2022-07-26T03:03:34;22.75;;;15.25;;
65368;SDS011;51970;53.484;49.488;2022-07-26T03:06:00;23.38;;;15.13;;
65368;SDS011;51970;53.484;49.488;2022-07-26T03:08:26;20.25;;;12.98;;
65368;SDS011;51970;53.484;49.488;2022-07-26T03:10:52;19.67;;;14.55;;
65368;SDS011;51970;53.484;49.488;2022-07-26T03:13:18;21.90;;;16.02;;
65368;SDS011;51970;53.484;49.488;2022-07-26T03:15:44;20.08;;;13.85;;
65368;SDS011;51970;53.484;49.488;2022-07-26T03:18:10;27.00;;;14.95;;
65368;SDS011;51970;53.484;49.488;2022-07-26T03:20:36;27.75;;;15.25;;
65368;SDS011;51970;53.484;49.488;2022-07-26T03:23:02;29.20;;;15.85;;
65368;SDS011;51970;53.484;49.488;2022-07-26T03:25:28;24.27;;;15.18;;
65368;SDS011;51970;53.484;49.488;2022-07-26T03:27:54;20.77;;;13.32;;
65368;SDS011;51970;53.484;49.488;2022-07-26T03:30:24;22.75;;;13.80;;
65368;SDS011;51970;53.484;49.488;2022-07-26T03:32:50;19.42;;;12.60;;
65368;SDS011;51970;53.484;49.488;2022-07-26T03:35:16;22.42;;;14.88;;
65368;SDS011;51970;53.484;49.488;2022-07-26T03:37:42;22.52;;;14.00;;
65368;SDS011;51970;53.484;49.488;2022-07-26T03:40:08;27.20;;;14.57;;
65368;SDS011;51970;53.484;49.488;2022-07-26T03:42:35;21.58;;;13.73;;
65368;SDS011;51970;53.484;49.488;2022-07-26T03:45:01;21.17;;;14.65;;
65368;SDS011;51970;53.484;49.488;2022-07-26T03:47:27;23.73;;;14.68;;
65368;SDS011;51970;53.484;49.488;2022-07-26T03:49:53;22.92;;;16.73;;
65368;SDS011;51970;53.484;49.488;2022-07-26T03:52:19;33.03;;;14.38;;
65368;SDS011;51970;53.484;49.488;2022-07-26T03:54:45;21.23;;;13.18;;
65368;SDS011;51970;53.484;49.488;2022-07-26T03:57:11;19.25;;;11.98;;
65368;SDS011;51970;53.484;49.488;2022-07-26T03:59:37;23.35;;;12.32;;
65368;SDS011;51970;53.484;49.488;2022-07-26T04:02:03;24.55;;;12.27;;
65368;SDS011;51970;53.484;49.488;2022-07-26T04:04:29;19.65;;;11.70;;
65368;SDS011;51970;53.484;49.488;2022-07-26T04:06:55;19.30;;;10.85;;
65368;SDS011;51970;53.484;49.488;2022-07-26T04:09:21;17.85;;;9.80;;
65368;SDS011;51970;53.484;49.488;2022-07-26T04:11:48;18.73;;;9.60;;
65368;SDS011;51970;53.484;49.488;2022-07-26T04:14:14;14.02;;;9.07;;
65368;SDS011;51970;53.484;49.488;2022-07-26T04:16:41;16.10;;;8.68;;
65368;SDS011;51970;53.484;49.488;2022-07-26T04:19:06;18.95;;;8.65;;
65368;SDS011;51970;53.484;49.488;2022-07-26T04:21:33;14.82;;;9.63;;
65368;SDS011;51970;53.484;49.488;2022-07-26T04:23:59;16.33;;;9.27;;
65368;SDS011;51970;53.484;49.488;2022-07-26T04:26:25;18.55;;;10.13;;
65368;SDS011;51970;53.484;49.488;2022-07-26T04:28:51;19.35;;;10.52;;
65368;SDS011;51970;53.484;49.488;2022-07-26T04:31:17;15.63;;;9.70;;
65368;SDS011;51970;53.484;49.488;2022-07-26T04:33:43;17.02;;;10.18;;
65368;SDS011;51970;53.484;49.488;2022-07-26T04:36:09;19.45;;;9.77;;
65368;SDS011;51970;53.484;49.488;2022-07-26T04:38:35;17.95;;;9.57;;
65368;SDS011;51970;53.484;49.488;2022-07-26T04:41:01;24.05;;;11.05;;
65368;SDS011;51970;53.484;49.488;2022-07-26T04:43:27;15.60;;;10.20;;
65368;SDS011;51970;53.484;49.488;2022-07-26T04:45:53;17.40;;;10.63;;
65368;SDS011;51970;53.484;49.488;2022-07-26T04:48:21;23.98;;;11.18;;
65368;SDS011;51970;53.484;49.488;2022-07-26T04:50:48;19.02;;;11.55;;
65368;SDS011;51970;53.484;49.488;2022-07-26T04:53:14;18.25;;;11.43;;
65368;SDS011;51970;53.484;49.488;2022-07-26T04:55:40;20.90;;;10.10;;
65368;SDS011;51970;53.484;49.488;2022-07-26T04:58:07;17.23;;;10.93;;
65368;SDS011;51970;53.484;49.488;2022-07-26T05:00:34;17.90;;;11.02;;
65368;SDS011;51970;53.484;49.488;2022-07-26T05:03:00;24.50;;;11.50;;
65368;SDS011;51970;53.484;49.488;2022-07-26T05:05:29;18.42;;;11.35;;
65368;SDS011;51970;53.484;49.488;2022-07-26T05:07:59;22.38;;;10.27;;
65368;SDS011;51970;53.484;49.488;2022-07-26T05:10:30;23.83;;;9.98;;
65368;SDS011;51970;53.484;49.488;2022-07-26T05:13:00;20.42;;;10.55;;
65368;SDS011;51970;53.484;49.488;2022-07-26T05:15:29;19.27;;;10.23;;
65368;SDS011;51970;53.484;49.488;2022-07-26T05:18:00;16.27;;;9.98;;
65368;SDS011;51970;53.484;49.488;2022-07-26T05:22:56;15.27;;;10.05;;
65368;SDS011;51970;53.484;49.488;2022-07-26T05:25:23;24.15;;;10.27;;
65368;SDS011;51970;53.484;49.488;2022-07-26T05:27:50;22.65;;;10.43;;
65368;SDS011;51970;53.484;49.488;2022-07-26T05:30:16;12.98;;;8.80;;
65368;SDS011;51970;53.484;49.488;2022-07-26T05:32:43;17.17;;;9.80;;
65368;SDS011;51970;53.484;49.488;2022-07-26T05:35:09;16.67;;;10.13;;
65368;SDS011;51970;53.484;49.488;2022-07-26T05:37:35;15.43;;;11.77;;
65368;SDS011;51970;53.484;49.488;2022-07-26T05:40:02;16.95;;;9.60;;
65368;SDS011;51970;53.484;49.488;2022-07-26T05:42:29;17.58;;;11.23;;
65368;SDS011;51970;53.484;49.488;2022-07-26T05:44:57;15.40;;;10.73;;
65368;SDS011;51970;53.484;49.488;2022-07-26T05:47:24;21.08;;;11.20;;
65368;SDS011;51970;53.484;49.488;2022-07-26T05:49:50;14.43;;;10.15;;
65368;SDS011;51970;53.484;49.488;2022-07-26T05:52:16;29.20;;;13.68;;
65368;SDS011;51970;53.484;49.488;2022-07-26T05:54:42;20.60;;;13.48;;
65368;SDS011;51970;53.484;49.488;2022-07-26T05:57:08;18.15;;;11.20;;
65368;SDS011;51970;53.484;49.488;2022-07-26T05:59:34;25.35;;;12.05;;
65368;SDS011;51970;53.484;49.488;2022-07-26T06:02:00;16.05;;;10.75;;
65368;SDS011;51970;53.484;49.488;2022-07-26T06:04:26;15.48;;;10.32;;
65368;SDS011;51970;53.484;49.488;2022-07-26T06:06:53;14.98;;;10.45;;
65368;SDS011;51970;53.484;49.488;2022-07-26T06:09:19;15.35;;;11.48;;
65368;SDS011;51970;53.484;49.488;2022-07-26T06:11:45;16.20;;;10.27;;
65368;SDS011;51970;53.484;49.488;2022-07-26T06:14:11;16.33;;;12.05;;
65368;SDS011;51970;53.484;49.488;2022-07-26T06:16:37;16.27;;;11.73;;
65368;SDS011;51970;53.484;49.488;2022-07-26T06:19:03;17.25;;;10.43;;
65368;SDS011;51970;53.484;49.488;2022-07-26T06:21:29;17.58;;;11.70;;
65368;SDS011;51970;53.484;49.488;2022-07-26T06:23:55;18.00;;;11.10;;
65368;SDS011;51970;53.484;49.488;2022-07-26T06:26:21;20.13;;;13.75;;
65368;SDS011;51970;53.484;49.488;2022-07-26T06:28:48;15.23;;;10.68;;
65368;SDS011;51970;53.484;49.488;2022-07-26T06:31:18;22.30;;;10.77;;
65368;SDS011;51970;53.484;49.488;2022-07-26T06:33:45;18.23;;;11.68;;
65368;SDS011;51970;53.484;49.488;2022-07-26T06:36:11;12.90;;;8.35;;
65368;SDS011;51970;53.484;49.488;2022-07-26T06:38:37;20.92;;;11.80;;
65368;SDS011;51970;53.484;49.488;2022-07-26T06:41:03;89.60;;;46.40;;
65368;SDS011;51970;53.484;49.488;2022-07-26T06:43:29;24.05;;;14.00;;
65368;SDS011;51970;53.484;49.488;2022-07-26T06:45:55;36.47;;;18.52;;
65368;SDS011;51970;53.484;49.488;2022-07-26T06:48:21;21.25;;;11.95;;
65368;SDS011;51970;53.484;49.488;2022-07-26T06:50:47;12.73;;;8.35;;
65368;SDS011;51970;53.484;49.488;2022-07-26T06:53:14;19.85;;;13.73;;
65368;SDS011;51970;53.484;49.488;2022-07-26T06:55:40;12.60;;;7.60;;
65368;SDS011;51970;53.484;49.488;2022-07-26T06:58:06;11.45;;;7.63;;
65368;SDS011;51970;53.484;49.488;2022-07-26T07:00:32;13.80;;;7.35;;
65368;SDS011;51970;53.484;49.488;2022-07-26T07:02:58;12.00;;;6.72;;
65368;SDS011;51970;53.484;49.488;2022-07-26T07:05:24;11.00;;;6.43;;
65368;SDS011;51970;53.484;49.488;2022-07-26T07:07:50;9.02;;;6.50;;
65368;SDS011;51970;53.484;49.488;2022-07-26T07:10:16;10.23;;;5.57;;
65368;SDS011;51970;53.484;49.488;2022-07-26T07:12:42;11.15;;;8.88;;
65368;SDS011;51970;53.484;49.488;2022-07-26T07:15:09;12.82;;;6.28;;
65368;SDS011;51970;53.484;49.488;2022-07-26T07:17:38;11.95;;;6.85;;
65368;SDS011;51970;53.484;49.488;2022-07-26T07:20:04;15.27;;;8.30;;
65368;SDS011;51970;53.484;49.488;2022-07-26T07:22:31;20.25;;;10.25;;
65368;SDS011;51970;53.484;49.488;2022-07-26T07:24:57;18.33;;;10.77;;
65368;SDS011;51970;53.484;49.488;2022-07-26T07:27:23;16.70;;;10.65;;
65368;SDS011;51970;53.484;49.488;2022-07-26T07:29:49;13.35;;;9.40;;
65368;SDS011;51970;53.484;49.488;2022-07-26T07:32:15;19.60;;;11.38;;
65368;SDS011;51970;53.484;49.488;2022-07-26T07:34:41;16.33;;;10.63;;
65368;SDS011;51970;53.484;49.488;2022-07-26T07:37:10;17.73;;;11.35;;
65368;SDS011;51970;53.484;49.488;2022-07-26T07:39:37;15.52;;;9.70;;
65368;SDS011;51970;53.484;49.488;2022-07-26T07:42:03;16.00;;;11.73;;
65368;SDS011;51970;53.484;49.488;2022-07-26T07:44:29;17.35;;;11.32;;
65368;SDS011;51970;53.484;49.488;2022-07-26T07:46:55;19.67;;;13.10;;
65368;SDS011;51970;53.484;49.488;2022-07-26T07:49:21;19.55;;;12.77;;
65368;SDS011;51970;53.484;49.488;2022-07-26T07:51:48;18.17;;;12.13;;
65368;SDS011;51970;53.484;49.488;2022-07-26T07:54:14;14.95;;;10.77;;
65368;SDS011;51970;53.484;49.488;2022-07-26T07:56:41;21.08;;;14.27;;
65368;SDS011;51970;53.484;49.488;2022-07-26T07:59:07;17.73;;;12.73;;
65368;SDS011;51970;53.484;49.488;2022-07-26T08:01:33;21.33;;;14.32;;
65368;SDS011;51970;53.484;49.488;2022-07-26T08:03:59;22.98;;;14.13;;
65368;SDS011;51970;53.484;49.488;2022-07-26T08:06:25;31.02;;;17.60;;
65368;SDS011;51970;53.484;49.488;2022-07-26T08:08:51;22.08;;;14.65;;
65368;SDS011;51970;53.484;49.488;2022-07-26T08:11:17;21.25;;;13.63;;
65368;SDS011;51970;53.484;49.488;2022-07-26T08:13:44;25.48;;;16.50;;
65368;SDS011;51970;53.484;49.488;2022-07-26T08:16:10;22.85;;;16.23;;
65368;SDS011;51970;53.484;49.488;2022-07-26T08:18:36;27.35;;;16.08;;
65368;SDS011;51970;53.484;49.488;2022-07-26T08:21:02;28.45;;;16.30;;
65368;SDS011;51970;53.484;49.488;2022-07-26T08:23:28;25.38;;;16.92;;
65368;SDS011;51970;53.484;49.488;2022-07-26T08:25:54;25.92;;;14.75;;
65368;SDS011;51970;53.484;49.488;2022-07-26T08:28:22;20.45;;;14.85;;
65368;SDS011;51970;53.484;49.488;2022-07-26T08:30:48;29.65;;;15.90;;
65368;SDS011;51970;53.484;49.488;2022-07-26T08:33:14;25.77;;;17.70;;
65368;SDS011;51970;53.484;49.488;2022-07-26T08:35:40;28.15;;;14.23;;
65368;SDS011;51970;53.484;49.488;2022-07-26T08:38:06;22.20;;;15.23;;
65368;SDS011;51970;53.484;49.488;2022-07-26T08:40:32;25.15;;;15.35;;
65368;SDS011;51970;53.484;49.488;2022-07-26T08:42:58;25.05;;;13.43;;
65368;SDS011;51970;53.484;49.488;2022-07-26T08:45:27;22.60;;;14.45;;
65368;SDS011;51970;53.484;49.488;2022-07-26T08:47:54;24.55;;;15.50;;
65368;SDS011;51970;53.484;49.488;2022-07-26T08:50:21;26.00;;;17.30;;
65368;SDS011;51970;53.484;49.488;2022-07-26T08:52:48;27.10;;;17.77;;
65368;SDS011;51970;53.484;49.488;2022-07-26T08:55:18;28.50;;;18.30;;
65368;SDS011;51970;53.484;49.488;2022-07-26T08:57:45;28.85;;;20.52;;
65368;SDS011;51970;53.484;49.488;2022-07-26T09:00:15;30.10;;;19.85;;
65368;SDS011;51970;53.484;49.488;2022-07-26T09:02:47;25.88;;;18.38;;
65368;SDS011;51970;53.484;49.488;2022-07-26T09:05:14;25.88;;;18.88;;
65368;SDS011;51970;53.484;49.488;2022-07-26T09:07:40;26.42;;;17.73;;
65368;SDS011;51970;53.484;49.488;2022-07-26T09:10:08;29.88;;;19.65;;
65368;SDS011;51970;53.484;49.488;2022-07-26T09:12:36;29.40;;;20.85;;
65368;SDS011;51970;53.484;49.488;2022-07-26T09:15:03;22.20;;;15.05;;
65368;SDS011;51970;53.484;49.488;2022-07-26T09:17:42;22.58;;;16.00;;
65368;SDS011;51970;53.484;49.488;2022-07-26T09:20:11;25.15;;;14.70;;
65368;SDS011;51970;53.484;49.488;2022-07-26T09:25:25;24.90;;;14.38;;
65368;SDS011;51970;53.484;49.488;2022-07-26T09:27:53;23.10;;;12.95;;
65368;SDS011;51970;53.484;49.488;2022-07-26T09:30:19;17.50;;;11.88;;
65368;SDS011;51970;53.484;49.488;2022-07-26T09:32:55;19.45;;;12.23;;
65368;SDS011;51970;53.484;49.488;2022-07-26T09:35:24;28.02;;;16.23;;
65368;SDS011;51970;53.484;49.488;2022-07-26T09:37:50;26.63;;;14.23;;
65368;SDS011;51970;53.484;49.488;2022-07-26T09:40:17;25.38;;;18.88;;
65368;SDS011;51970;53.484;49.488;2022-07-26T09:42:59;17.58;;;12.50;;
65368;SDS011;51970;53.484;49.488;2022-07-26T09:45:29;27.27;;;16.30;;
65368;SDS011;51970;53.484;49.488;2022-07-26T09:47:56;22.05;;;15.52;;
65368;SDS011;51970;53.484;49.488;2022-07-26T09:50:26;19.17;;;13.20;;
65368;SDS011;51970;53.484;49.488;2022-07-26T09:53:10;22.40;;;14.18;;
65368;SDS011;51970;53.484;49.488;2022-07-26T09:58:13;23.02;;;17.40;;
65368;SDS011;51970;53.484;49.488;2022-07-26T10:00:40;33.03;;;16.40;;
65368;SDS011;51970;53.484;49.488;2022-07-26T10:03:07;22.88;;;16.70;;
65368;SDS011;51970;53.484;49.488;2022-07-26T10:05:33;22.73;;;16.27;;
65368;SDS011;51970;53.484;49.488;2022-07-26T10:08:01;19.88;;;14.38;;
65368;SDS011;51970;53.484;49.488;2022-07-26T10:10:29;21.17;;;14.45;;
65368;SDS011;51970;53.484;49.488;2022-07-26T10:12:58;21.05;;;13.43;;
65368;SDS011;51970;53.484;49.488;2022-07-26T10:15:40;16.38;;;11.13;;
65368;SDS011;51970;53.484;49.488;2022-07-26T10:18:40;19.23;;;12.02;;
65368;SDS011;51970;53.484;49.488;2022-07-26T10:23:42;16.73;;;9.48;;
65368;SDS011;51970;53.484;49.488;2022-07-26T10:26:11;12.15;;;8.18;;
65368;SDS011;51970;53.484;49.488;2022-07-26T10:36:59;11.20;;;6.45;;
65368;SDS011;51970;53.484;49.488;2022-07-26T10:39:30;13.90;;;8.45;;
65368;SDS011;51970;53.484;49.488;2022-07-26T10:42:04;15.95;;;7.55;;
65368;SDS011;51970;53.484;49.488;2022-07-26T10:44:31;13.55;;;7.32;;
65368;SDS011;51970;53.484;49.488;2022-07-26T10:49:40;25.20;;;15.02;;
65368;SDS011;51970;53.484;49.488;2022-07-26T10:52:09;20.05;;;12.30;;
65368;SDS011;51970;53.484;49.488;2022-07-26T10:57:25;22.83;;;11.63;;
65368;SDS011;51970;53.484;49.488;2022-07-26T10:59:59;14.88;;;9.60;;
65368;SDS011;51970;53.484;49.488;2022-07-26T11:02:28;21.85;;;11.80;;
65368;SDS011;51970;53.484;49.488;2022-07-26T11:05:00;16.60;;;9.93;;
65368;SDS011;51970;53.484;49.488;2022-07-26T11:07:29;15.70;;;9.85;;
65368;SDS011;51970;53.484;49.488;2022-07-26T11:09:56;19.77;;;9.65;;
65368;SDS011;51970;53.484;49.488;2022-07-26T11:12:23;18.52;;;9.48;;
65368;SDS011;51970;53.484;49.488;2022-07-26T11:14:49;13.05;;;9.00;;
65368;SDS011;51970;53.484;49.488;2022-07-26T11:17:25;17.02;;;8.57;;
65368;SDS011;51970;53.484;49.488;2022-07-26T11:22:19;12.85;;;9.45;;
65368;SDS011;51970;53.484;49.488;2022-07-26T11:24:45;13.00;;;8.63;;
65368;SDS011;51970;53.484;49.488;2022-07-26T11:27:12;17.58;;;9.52;;
65368;SDS011;51970;53.484;49.488;2022-07-26T11:29:38;17.48;;;11.25;;
65368;SDS011;51970;53.484;49.488;2022-07-26T11:32:05;12.90;;;8.05;;
65368;SDS011;51970;53.484;49.488;2022-07-26T11:34:39;14.40;;;8.77;;
65368;SDS011;51970;53.484;49.488;2022-07-26T11:37:05;16.35;;;12.45;;
65368;SDS011;51970;53.484;49.488;2022-07-26T11:39:32;15.88;;;10.20;;
65368;SDS011;51970;53.484;49.488;2022-07-26T11:42:00;13.95;;;8.40;;
65368;SDS011;51970;53.484;49.488;2022-07-26T11:44:29;13.15;;;8.23;;
65368;SDS011;51970;53.484;49.488;2022-07-26T11:46:56;14.35;;;7.43;;
65368;SDS011;51970;53.484;49.488;2022-07-26T11:49:23;13.57;;;7.40;;
65368;SDS011;51970;53.484;49.488;2022-07-26T11:51:55;12.63;;;9.38;;
65368;SDS011;51970;53.484;49.488;2022-07-26T11:54:23;11.23;;;6.50;;
65368;SDS011;51970;53.484;49.488;2022-07-26T11:56:52;9.15;;;6.30;;
65368;SDS011;51970;53.484;49.488;2022-07-26T11:59:30;9.55;;;6.45;;
65368;SDS011;51970;53.484;49.488;2022-07-26T12:01:58;11.20;;;7.00;;
65368;SDS011;51970;53.484;49.488;2022-07-26T12:04:26;8.95;;;4.70;;
65368;SDS011;51970;53.484;49.488;2022-07-26T12:06:55;13.70;;;6.10;;
65368;SDS011;51970;53.484;49.488;2022-07-26T12:09:32;17.85;;;5.43;;
65368;SDS011;51970;53.484;49.488;2022-07-26T12:12:17;19.27;;;6.53;;
65368;SDS011;51970;53.484;49.488;2022-07-26T12:14:52;14.13;;;6.47;;
65368;SDS011;51970;53.484;49.488;2022-07-26T12:17:27;13.27;;;7.10;;
65368;SDS011;51970;53.484;49.488;2022-07-26T12:19:53;12.80;;;7.15;;
65368;SDS011;51970;53.484;49.488;2022-07-26T12:22:20;15.65;;;8.77;;
65368;SDS011;51970;53.484;49.488;2022-07-26T12:27:21;14.45;;;6.90;;
65368;SDS011;51970;53.484;49.488;2022-07-26T12:29:52;11.27;;;6.72;;
65368;SDS011;51970;53.484;49.488;2022-07-26T12:32:30;11.63;;;6.45;;
65368;SDS011;51970;53.484;49.488;2022-07-26T12:35:07;12.52;;;7.38;;
65368;SDS011;51970;53.484;49.488;2022-07-26T12:37:36;14.70;;;6.88;;
65368;SDS011;51970;53.484;49.488;2022-07-26T12:40:13;16.17;;;7.25;;
65368;SDS011;51970;53.484;49.488;2022-07-26T12:42:41;17.60;;;8.45;;
65368;SDS011;51970;53.484;49.488;2022-07-26T12:45:10;15.23;;;9.40;;
65368;SDS011;51970;53.484;49.488;2022-07-26T12:47:38;13.48;;;8.15;;
65368;SDS011;51970;53.484;49.488;2022-07-26T12:50:05;12.23;;;7.35;;
65368;SDS011;51970;53.484;49.488;2022-07-26T12:52:33;14.02;;;7.72;;
65368;SDS011;51970;53.484;49.488;2022-07-26T12:55:00;18.77;;;9.80;;
65368;SDS011;51970;53.484;49.488;2022-07-26T12:57:27;15.30;;;8.02;;
65368;SDS011;51970;53.484;49.488;2022-07-26T12:59:54;15.02;;;8.93;;
65368;SDS011;51970;53.484;49.488;2022-07-26T13:02:20;13.57;;;8.40;;
65368;SDS011;51970;53.484;49.488;2022-07-26T13:04:47;10.20;;;6.72;;
65368;SDS011;51970;53.484;49.488;2022-07-26T13:07:14;12.27;;;7.95;;
65368;SDS011;51970;53.484;49.488;2022-07-26T13:09:41;12.20;;;7.22;;
65368;SDS011;51970;53.484;49.488;2022-07-26T13:12:08;10.57;;;6.35;;
65368;SDS011;51970;53.484;49.488;2022-07-26T13:14:35;12.30;;;7.43;;
65368;SDS011;51970;53.484;49.488;2022-07-26T13:17:02;12.73;;;6.13;;
65368;SDS011;51970;53.484;49.488;2022-07-26T13:19:29;13.43;;;7.47;;
65368;SDS011;51970;53.484;49.488;2022-07-26T13:21:56;13.27;;;6.05;;
65368;SDS011;51970;53.484;49.488;2022-07-26T13:24:24;12.13;;;6.18;;
65368;SDS011;51970;53.484;49.488;2022-07-26T13:26:51;11.60;;;6.03;;
65368;SDS011;51970;53.484;49.488;2022-07-26T13:29:18;11.50;;;6.05;;
65368;SDS011;51970;53.484;49.488;2022-07-26T13:31:44;12.40;;;5.85;;
65368;SDS011;51970;53.484;49.488;2022-07-26T13:34:10;13.90;;;6.20;;
65368;SDS011;51970;53.484;49.488;2022-07-26T13:36:37;9.50;;;5.55;;
65368;SDS011;51970;53.484;49.488;2022-07-26T13:39:03;11.70;;;5.78;;
65368;SDS011;51970;53.484;49.488;2022-07-26T13:41:30;10.82;;;6.70;;
65368;SDS011;51970;53.484;49.488;2022-07-26T13:43:56;13.05;;;7.85;;
65368;SDS011;51970;53.484;49.488;2022-07-26T13:46:22;10.88;;;5.80;;
65368;SDS011;51970;53.484;49.488;2022-07-26T13:48:51;9.77;;;5.07;;
65368;SDS011;51970;53.484;49.488;2022-07-26T13:51:17;9.30;;;5.43;;
65368;SDS011;51970;53.484;49.488;2022-07-26T13:53:43;8.88;;;5.00;;
65368;SDS011;51970;53.484;49.488;2022-07-26T13:56:10;12.80;;;4.95;;
65368;SDS011;51970;53.484;49.488;2022-07-26T13:58:36;22.13;;;5.45;;
65368;SDS011;51970;53.484;49.488;2022-07-26T14:01:02;11.68;;;4.80;;
65368;SDS011;51970;53.484;49.488;2022-07-26T14:03:28;11.75;;;5.45;;
65368;SDS011;51970;53.484;49.488;2022-07-26T14:05:54;8.95;;;4.80;;
65368;SDS011;51970;53.484;49.488;2022-07-26T14:08:20;10.75;;;5.75;;
65368;SDS011;51970;53.484;49.488;2022-07-26T14:10:46;8.68;;;3.92;;
65368;SDS011;51970;53.484;49.488;2022-07-26T14:13:12;9.35;;;4.15;;
65368;SDS011;51970;53.484;49.488;2022-07-26T14:15:38;10.77;;;5.10;;
65368;SDS011;51970;53.484;49.488;2022-07-26T14:18:04;11.77;;;4.45;;
65368;SDS011;51970;53.484;49.488;2022-07-26T14:20:30;11.75;;;4.30;;
65368;SDS011;51970;53.484;49.488;2022-07-26T14:22:56;9.98;;;4.25;;
65368;SDS011;51970;53.484;49.488;2022-07-26T14:25:23;7.28;;;4.10;;
65368;SDS011;51970;53.484;49.488;2022-07-26T14:27:50;8.20;;;4.10;;
65368;SDS011;51970;53.484;49.488;2022-07-26T14:30:18;10.48;;;3.85;;
65368;SDS011;51970;53.484;49.488;2022-07-26T14:32:44;7.78;;;3.53;;
65368;SDS011;51970;53.484;49.488;2022-07-26T14:35:11;6.05;;;3.30;;
65368;SDS011;51970;53.484;49.488;2022-07-26T14:37:38;8.13;;;3.85;;
65368;SDS011;51970;53.484;49.488;2022-07-26T14:40:04;9.23;;;3.63;;
65368;SDS011;51970;53.484;49.488;2022-07-26T14:42:32;15.80;;;5.15;;
65368;SDS011;51970;53.484;49.488;2022-07-26T14:44:58;13.38;;;7.55;;